createdAt,value
2017-05-20T00:00:02.753Z,10.73
2017-05-20T00:10:02.214Z,10.77
2017-05-20T00:20:02.481Z,10.8
2017-05-20T00:30:02.933Z,10.79
2017-05-20T00:40:02.411Z,10.8
2017-05-20T00:50:02.478Z,10.73
2017-05-20T01:00:02.940Z,10.66
2017-05-20T01:10:02.418Z,10.64
2017-05-20T01:20:02.767Z,10.64
2017-05-20T01:30:02.241Z,10.62
2017-05-20T01:40:02.711Z,10.68
2017-05-20T01:50:02.777Z,10.75
2017-05-20T02:00:02.231Z,10.81
2017-05-20T02:10:02.689Z,10.83
2017-05-20T02:20:02.955Z,10.85
2017-05-20T02:30:02.372Z,10.78
2017-05-20T02:40:02.880Z,10.78
2017-05-20T02:50:02.929Z,10.72
2017-05-20T03:00:02.374Z,10.81
2017-05-20T03:10:02.804Z,10.84
2017-05-20T03:20:03.078Z,10.9
2017-05-20T03:30:02.568Z,10.9
2017-05-20T03:40:03.092Z,10.92
2017-05-20T03:50:02.145Z,10.98
2017-05-20T04:00:02.627Z,11.03
2017-05-20T04:10:03.093Z,11.04
2017-05-20T04:20:02.890Z,11.05
2017-05-20T04:30:02.631Z,11.1
2017-05-20T04:40:02.690Z,11.1
2017-05-20T04:50:02.340Z,11.13
2017-05-20T05:00:03.129Z,11.31
2017-05-20T05:10:02.156Z,11.46
2017-05-20T05:20:02.999Z,11.55
2017-05-20T05:30:02.299Z,11.6
2017-05-20T05:40:02.359Z,11.58
2017-05-20T05:50:02.643Z,11.54
2017-05-20T06:00:02.715Z,11.49
2017-05-20T06:10:02.741Z,11.51
2017-05-20T06:20:02.287Z,11.56
2017-05-20T06:30:02.571Z,11.7
2017-05-20T06:40:02.809Z,11.82
2017-05-20T06:50:02.654Z,12.04
2017-05-20T07:00:02.725Z,12.35
2017-05-20T07:10:02.242Z,12.87
2017-05-20T07:20:02.627Z,14.41
2017-05-20T07:30:02.951Z,15.42
2017-05-20T07:40:02.988Z,16.19
2017-05-20T07:50:02.378Z,16.79
2017-05-20T08:00:02.941Z,17.13
2017-05-20T08:10:02.882Z,17.25
2017-05-20T08:20:02.179Z,17.74
2017-05-20T08:30:02.466Z,18.13
2017-05-20T08:40:03.098Z,18.33
2017-05-20T08:50:02.559Z,18.68
2017-05-20T09:00:02.963Z,18.78
2017-05-20T09:10:02.532Z,18.57
2017-05-20T09:20:03.008Z,19.16
2017-05-20T09:30:02.828Z,19.02
2017-05-20T09:40:02.276Z,19.01
2017-05-20T09:50:02.491Z,19.29
2017-05-20T10:00:02.557Z,19.6
2017-05-20T10:10:02.291Z,18.44
2017-05-20T10:20:02.805Z,19.14
2017-05-20T10:30:03.162Z,19.32
2017-05-20T10:40:02.621Z,18.53
2017-05-20T10:50:02.367Z,18.78
2017-05-20T11:00:02.645Z,18.33
2017-05-20T11:10:02.982Z,16.34
2017-05-20T11:20:03.032Z,16.15
2017-05-20T11:30:02.643Z,16.89
2017-05-20T11:40:02.239Z,17.6
2017-05-20T11:50:02.969Z,17.52
2017-05-20T12:00:03.016Z,17.36
2017-05-20T12:10:02.259Z,17.65
2017-05-20T12:20:02.707Z,18.08
2017-05-20T12:30:02.957Z,17.93
2017-05-20T12:40:02.371Z,17.6
2017-05-20T12:50:03.113Z,18.1
2017-05-20T13:00:02.172Z,17.89
2017-05-20T13:10:02.943Z,17.74
2017-05-20T13:20:02.748Z,17.53
2017-05-20T13:30:03.084Z,17.64
2017-05-20T13:40:02.909Z,17.83
2017-05-20T13:50:02.991Z,18.03
2017-05-20T14:00:03.117Z,18.36
2017-05-20T14:10:02.166Z,18.57
2017-05-20T14:20:03.042Z,18.77
2017-05-20T14:30:02.415Z,19.04
2017-05-20T14:40:02.466Z,19.43
2017-05-20T14:50:03.009Z,19.45
2017-05-20T15:00:02.432Z,19.62
2017-05-20T15:10:02.777Z,19.73
2017-05-20T15:20:02.321Z,19.54
2017-05-20T15:30:02.655Z,19.29
2017-05-20T15:40:02.251Z,19.16
2017-05-20T15:50:02.732Z,19.44
2017-05-20T16:00:03.066Z,19.11
2017-05-20T16:10:02.366Z,19.17
2017-05-20T16:20:03.026Z,19.1
2017-05-20T16:30:02.581Z,19.12
2017-05-20T16:40:02.217Z,19.1
2017-05-20T16:50:02.675Z,18.64
2017-05-20T17:00:02.741Z,18.73
2017-05-20T17:10:02.361Z,18.69
2017-05-20T17:20:02.300Z,18.78
2017-05-20T17:30:02.589Z,18.64
2017-05-20T17:40:02.209Z,18.39
2017-05-20T17:50:02.996Z,18.19
2017-05-20T18:00:03.041Z,17.93
2017-05-20T18:10:02.617Z,17.68
2017-05-20T18:20:02.784Z,17.46
2017-05-20T18:30:02.248Z,17.28
2017-05-20T18:40:02.785Z,17.1
2017-05-20T18:50:02.223Z,16.94
2017-05-20T19:00:02.624Z,16.76
2017-05-20T19:10:03.120Z,16.55
2017-05-20T19:20:03.148Z,16.35
2017-05-20T19:30:02.606Z,16.15
2017-05-20T19:40:03.080Z,15.98
2017-05-20T19:50:02.293Z,15.77
2017-05-20T20:00:02.805Z,15.56
2017-05-20T20:10:02.265Z,15.37
2017-05-20T20:20:03.102Z,15.23
2017-05-20T20:30:02.561Z,15.1
2017-05-20T20:40:03.027Z,14.96
2017-05-20T20:50:02.858Z,14.77
2017-05-20T21:00:02.296Z,14.53
2017-05-20T21:10:02.404Z,14.21
2017-05-20T21:20:03.003Z,14
2017-05-20T21:30:02.449Z,13.86
2017-05-20T21:40:03.149Z,13.8
2017-05-20T21:50:02.721Z,13.63
2017-05-20T22:00:02.287Z,13.48
2017-05-20T22:10:02.874Z,13.29
2017-05-20T22:20:02.517Z,13.11
2017-05-20T22:30:02.985Z,12.89
2017-05-20T22:40:02.990Z,12.67
2017-05-20T22:50:02.444Z,12.45
2017-05-20T23:00:02.905Z,12.25
2017-05-20T23:10:02.301Z,12
2017-05-20T23:20:02.207Z,11.75
2017-05-20T23:30:02.652Z,11.56
2017-05-20T23:40:02.211Z,11.43
2017-05-20T23:50:02.507Z,11.29
